Hingham, Montana
Current Conditions -  °F | °C
As of 7:53 AM on Sunday 21 Dec 2014 (Local Time) from KHVR Reporting Station
Broken Clouds Broken Clouds  
Wind Chill: 29°   Ceiling: 11000
Heat Index: 38°   Visibility: 10mi
Dew Point: 33°   Wind: 15mph
Humidity: 83%   Direction: 220°SW
Pressure: 29.27"   Gusts: NA
Location:  48.55°N, 110.42°W
Report Text: KHVR 211453Z AUTO 22013KT 10SM FEW080 BKN110 03/01 A2927 RMK AO2 RAE1355 SLP931 P0000 60002 T00330006 58015 $
Loading
Personal Weather Stations






























Interactive Weather Map New forecast layout! Learn more

10-Day Weather Forecast

Advertisements
Track Severe Weather on mobile